sensor_id;sensor_type;location;lat;lon;timestamp;temperature;humidity
80937;DHT22;70395;51.382;7.074;2024-03-17T00:02:13;6.70;61.90
80937;DHT22;70395;51.382;7.074;2024-03-17T00:04:39;6.70;62.00
80937;DHT22;70395;51.382;7.074;2024-03-17T00:07:05;6.70;62.00
80937;DHT22;70395;51.382;7.074;2024-03-17T00:09:31;6.60;61.80
80937;DHT22;70395;51.382;7.074;2024-03-17T00:11:56;6.60;61.80
80937;DHT22;70395;51.382;7.074;2024-03-17T00:14:22;6.60;61.90
80937;DHT22;70395;51.382;7.074;2024-03-17T00:16:48;6.60;62.00
80937;DHT22;70395;51.382;7.074;2024-03-17T00:19:14;6.60;61.90
80937;DHT22;70395;51.382;7.074;2024-03-17T00:21:42;6.60;62.00
80937;DHT22;70395;51.382;7.074;2024-03-17T00:24:09;6.60;62.00
80937;DHT22;70395;51.382;7.074;2024-03-17T00:26:35;6.60;62.10
80937;DHT22;70395;51.382;7.074;2024-03-17T00:29:01;6.60;62.20
80937;DHT22;70395;51.382;7.074;2024-03-17T00:31:28;6.50;62.10
80937;DHT22;70395;51.382;7.074;2024-03-17T00:33:54;6.50;62.20
80937;DHT22;70395;51.382;7.074;2024-03-17T00:36:20;6.50;62.30
80937;DHT22;70395;51.382;7.074;2024-03-17T00:38:46;6.50;62.50
80937;DHT22;70395;51.382;7.074;2024-03-17T00:41:11;6.40;62.40
80937;DHT22;70395;51.382;7.074;2024-03-17T00:43:37;6.40;62.50
80937;DHT22;70395;51.382;7.074;2024-03-17T00:46:03;6.40;62.50
80937;DHT22;70395;51.382;7.074;2024-03-17T00:48:29;6.40;62.60
80937;DHT22;70395;51.382;7.074;2024-03-17T00:50:56;6.40;62.70
80937;DHT22;70395;51.382;7.074;2024-03-17T00:53:22;6.30;62.70
80937;DHT22;70395;51.382;7.074;2024-03-17T00:55:52;6.30;62.80
80937;DHT22;70395;51.382;7.074;2024-03-17T00:58:22;6.30;62.90
80937;DHT22;70395;51.382;7.074;2024-03-17T01:00:48;6.30;62.90
80937;DHT22;70395;51.382;7.074;2024-03-17T01:03:18;6.20;63.10
80937;DHT22;70395;51.382;7.074;2024-03-17T01:05:45;6.20;63.00
80937;DHT22;70395;51.382;7.074;2024-03-17T01:08:16;6.20;63.00
80937;DHT22;70395;51.382;7.074;2024-03-17T01:10:43;6.20;63.10
80937;DHT22;70395;51.382;7.074;2024-03-17T01:13:10;6.20;63.10
80937;DHT22;70395;51.382;7.074;2024-03-17T01:15:37;6.10;63.10
80937;DHT22;70395;51.382;7.074;2024-03-17T01:18:04;6.10;63.30
80937;DHT22;70395;51.382;7.074;2024-03-17T01:20:31;6.10;63.30
80937;DHT22;70395;51.382;7.074;2024-03-17T01:22:58;6.00;63.30
80937;DHT22;70395;51.382;7.074;2024-03-17T01:25:24;6.00;63.30
80937;DHT22;70395;51.382;7.074;2024-03-17T01:27:55;6.00;63.40
80937;DHT22;70395;51.382;7.074;2024-03-17T01:30:21;6.00;63.40
80937;DHT22;70395;51.382;7.074;2024-03-17T01:32:48;6.00;63.50
80937;DHT22;70395;51.382;7.074;2024-03-17T01:35:14;5.90;63.50
80937;DHT22;70395;51.382;7.074;2024-03-17T01:37:41;5.90;63.50
80937;DHT22;70395;51.382;7.074;2024-03-17T01:40:08;5.90;63.70
80937;DHT22;70395;51.382;7.074;2024-03-17T01:42:41;5.80;63.60
80937;DHT22;70395;51.382;7.074;2024-03-17T01:45:31;5.80;63.90
80937;DHT22;70395;51.382;7.074;2024-03-17T01:48:00;5.80;64.30
80937;DHT22;70395;51.382;7.074;2024-03-17T01:50:36;5.80;64.00
80937;DHT22;70395;51.382;7.074;2024-03-17T01:53:04;5.80;64.20
80937;DHT22;70395;51.382;7.074;2024-03-17T01:55:37;5.70;64.00
80937;DHT22;70395;51.382;7.074;2024-03-17T01:58:05;5.70;64.20
80937;DHT22;70395;51.382;7.074;2024-03-17T02:00:36;5.70;64.20
80937;DHT22;70395;51.382;7.074;2024-03-17T02:03:06;5.70;64.10
80937;DHT22;70395;51.382;7.074;2024-03-17T02:05:34;5.70;64.50
80937;DHT22;70395;51.382;7.074;2024-03-17T02:08:06;5.60;64.30
80937;DHT22;70395;51.382;7.074;2024-03-17T02:10:33;5.60;64.30
80937;DHT22;70395;51.382;7.074;2024-03-17T02:13:00;5.60;64.60
80937;DHT22;70395;51.382;7.074;2024-03-17T02:15:29;5.60;64.70
80937;DHT22;70395;51.382;7.074;2024-03-17T02:17:55;5.60;64.70
80937;DHT22;70395;51.382;7.074;2024-03-17T02:20:21;5.50;64.60
80937;DHT22;70395;51.382;7.074;2024-03-17T02:23:07;5.50;64.80
80937;DHT22;70395;51.382;7.074;2024-03-17T02:25:33;5.50;64.80
80937;DHT22;70395;51.382;7.074;2024-03-17T02:27:59;5.50;65.00
80937;DHT22;70395;51.382;7.074;2024-03-17T02:30:24;5.50;64.90
80937;DHT22;70395;51.382;7.074;2024-03-17T02:32:56;5.40;64.90
80937;DHT22;70395;51.382;7.074;2024-03-17T02:35:23;5.40;65.10
80937;DHT22;70395;51.382;7.074;2024-03-17T02:37:50;5.40;64.80
80937;DHT22;70395;51.382;7.074;2024-03-17T02:40:16;5.40;65.00
80937;DHT22;70395;51.382;7.074;2024-03-17T02:42:42;5.40;65.00
80937;DHT22;70395;51.382;7.074;2024-03-17T02:45:10;5.30;65.20
80937;DHT22;70395;51.382;7.074;2024-03-17T02:47:40;5.30;65.30
80937;DHT22;70395;51.382;7.074;2024-03-17T02:50:07;5.30;65.40
80937;DHT22;70395;51.382;7.074;2024-03-17T02:52:34;5.30;65.50
80937;DHT22;70395;51.382;7.074;2024-03-17T02:55:00;5.30;65.50
80937;DHT22;70395;51.382;7.074;2024-03-17T02:57:26;5.20;65.20
80937;DHT22;70395;51.382;7.074;2024-03-17T02:59:56;5.20;65.40
80937;DHT22;70395;51.382;7.074;2024-03-17T03:02:22;5.20;65.50
80937;DHT22;70395;51.382;7.074;2024-03-17T03:04:48;5.20;65.20
80937;DHT22;70395;51.382;7.074;2024-03-17T03:07:14;5.20;65.50
80937;DHT22;70395;51.382;7.074;2024-03-17T03:09:40;5.20;65.60
80937;DHT22;70395;51.382;7.074;2024-03-17T03:12:06;5.20;65.80
80937;DHT22;70395;51.382;7.074;2024-03-17T03:14:33;5.20;65.80
80937;DHT22;70395;51.382;7.074;2024-03-17T03:16:59;5.20;65.90
80937;DHT22;70395;51.382;7.074;2024-03-17T03:19:29;5.20;66.00
80937;DHT22;70395;51.382;7.074;2024-03-17T03:21:55;5.20;66.00
80937;DHT22;70395;51.382;7.074;2024-03-17T03:24:21;5.20;65.80
80937;DHT22;70395;51.382;7.074;2024-03-17T03:26:47;5.20;66.60
80937;DHT22;70395;51.382;7.074;2024-03-17T03:29:14;5.30;66.80
80937;DHT22;70395;51.382;7.074;2024-03-17T03:31:40;5.30;66.80
80937;DHT22;70395;51.382;7.074;2024-03-17T03:34:07;5.30;66.60
80937;DHT22;70395;51.382;7.074;2024-03-17T03:36:34;5.40;66.60
80937;DHT22;70395;51.382;7.074;2024-03-17T03:39:03;5.40;66.30
80937;DHT22;70395;51.382;7.074;2024-03-17T03:41:36;5.40;66.00
80937;DHT22;70395;51.382;7.074;2024-03-17T03:44:02;5.40;66.00
80937;DHT22;70395;51.382;7.074;2024-03-17T03:46:28;5.40;66.30
80937;DHT22;70395;51.382;7.074;2024-03-17T03:48:54;5.40;66.30
80937;DHT22;70395;51.382;7.074;2024-03-17T03:51:20;5.30;66.30
80937;DHT22;70395;51.382;7.074;2024-03-17T03:53:50;5.30;66.10
80937;DHT22;70395;51.382;7.074;2024-03-17T03:56:16;5.30;66.30
80937;DHT22;70395;51.382;7.074;2024-03-17T03:58:42;5.30;66.20
80937;DHT22;70395;51.382;7.074;2024-03-17T04:01:09;5.30;66.20
80937;DHT22;70395;51.382;7.074;2024-03-17T04:03:41;5.30;66.30
80937;DHT22;70395;51.382;7.074;2024-03-17T04:06:08;5.30;66.40
80937;DHT22;70395;51.382;7.074;2024-03-17T04:08:37;5.30;66.70
80937;DHT22;70395;51.382;7.074;2024-03-17T04:11:06;5.20;66.60
80937;DHT22;70395;51.382;7.074;2024-03-17T04:13:33;5.20;66.50
80937;DHT22;70395;51.382;7.074;2024-03-17T04:16:00;5.20;66.60
80937;DHT22;70395;51.382;7.074;2024-03-17T04:18:31;5.20;66.80
80937;DHT22;70395;51.382;7.074;2024-03-17T04:21:02;5.20;66.80
80937;DHT22;70395;51.382;7.074;2024-03-17T04:23:29;5.20;67.40
80937;DHT22;70395;51.382;7.074;2024-03-17T04:25:58;5.10;66.60
80937;DHT22;70395;51.382;7.074;2024-03-17T04:28:25;5.20;67.20
80937;DHT22;70395;51.382;7.074;2024-03-17T04:30:50;5.20;67.20
80937;DHT22;70395;51.382;7.074;2024-03-17T04:33:16;5.30;67.60
80937;DHT22;70395;51.382;7.074;2024-03-17T04:35:42;5.30;67.90
80937;DHT22;70395;51.382;7.074;2024-03-17T04:38:09;5.30;67.90
80937;DHT22;70395;51.382;7.074;2024-03-17T04:40:40;5.40;68.10
80937;DHT22;70395;51.382;7.074;2024-03-17T04:43:09;5.40;68.00
80937;DHT22;70395;51.382;7.074;2024-03-17T04:45:35;5.40;67.70
80937;DHT22;70395;51.382;7.074;2024-03-17T04:48:01;5.40;67.70
80937;DHT22;70395;51.382;7.074;2024-03-17T04:50:26;5.50;67.60
80937;DHT22;70395;51.382;7.074;2024-03-17T04:52:57;5.40;67.50
80937;DHT22;70395;51.382;7.074;2024-03-17T04:55:26;5.50;67.40
80937;DHT22;70395;51.382;7.074;2024-03-17T04:57:52;5.50;67.30
80937;DHT22;70395;51.382;7.074;2024-03-17T05:00:18;5.60;67.40
80937;DHT22;70395;51.382;7.074;2024-03-17T05:02:45;5.60;67.60
80937;DHT22;70395;51.382;7.074;2024-03-17T05:05:11;5.60;67.50
80937;DHT22;70395;51.382;7.074;2024-03-17T05:07:37;5.60;67.50
80937;DHT22;70395;51.382;7.074;2024-03-17T05:10:03;5.60;67.60
80937;DHT22;70395;51.382;7.074;2024-03-17T05:12:31;5.60;67.50
80937;DHT22;70395;51.382;7.074;2024-03-17T05:14:57;5.60;67.50
80937;DHT22;70395;51.382;7.074;2024-03-17T05:17:23;5.70;67.50
80937;DHT22;70395;51.382;7.074;2024-03-17T05:19:48;5.70;67.40
80937;DHT22;70395;51.382;7.074;2024-03-17T05:22:14;5.70;67.40
80937;DHT22;70395;51.382;7.074;2024-03-17T05:24:40;5.70;67.20
80937;DHT22;70395;51.382;7.074;2024-03-17T05:27:06;5.70;67.20
80937;DHT22;70395;51.382;7.074;2024-03-17T05:29:32;5.70;67.20
80937;DHT22;70395;51.382;7.074;2024-03-17T05:31:58;5.70;67.00
80937;DHT22;70395;51.382;7.074;2024-03-17T05:34:24;5.60;66.90
80937;DHT22;70395;51.382;7.074;2024-03-17T05:36:50;5.60;66.90
80937;DHT22;70395;51.382;7.074;2024-03-17T05:39:16;5.60;67.20
80937;DHT22;70395;51.382;7.074;2024-03-17T05:41:42;5.60;67.20
80937;DHT22;70395;51.382;7.074;2024-03-17T05:44:09;5.60;67.20
80937;DHT22;70395;51.382;7.074;2024-03-17T05:46:35;5.60;67.50
80937;DHT22;70395;51.382;7.074;2024-03-17T05:49:01;5.60;67.50
80937;DHT22;70395;51.382;7.074;2024-03-17T05:51:29;5.60;67.70
80937;DHT22;70395;51.382;7.074;2024-03-17T05:53:55;5.60;67.70
80937;DHT22;70395;51.382;7.074;2024-03-17T05:56:21;5.60;67.80
80937;DHT22;70395;51.382;7.074;2024-03-17T05:58:48;5.70;68.10
80937;DHT22;70395;51.382;7.074;2024-03-17T06:01:14;5.70;68.40
80937;DHT22;70395;51.382;7.074;2024-03-17T06:03:40;5.80;68.60
80937;DHT22;70395;51.382;7.074;2024-03-17T06:06:07;5.90;69.40
80937;DHT22;70395;51.382;7.074;2024-03-17T06:08:37;6.00;68.50
80937;DHT22;70395;51.382;7.074;2024-03-17T06:11:04;6.20;68.50
80937;DHT22;70395;51.382;7.074;2024-03-17T06:13:31;6.30;68.20
80937;DHT22;70395;51.382;7.074;2024-03-17T06:15:57;6.40;68.10
80937;DHT22;70395;51.382;7.074;2024-03-17T06:18:27;6.50;68.10
80937;DHT22;70395;51.382;7.074;2024-03-17T06:20:53;6.70;68.00
80937;DHT22;70395;51.382;7.074;2024-03-17T06:23:19;6.80;67.80
80937;DHT22;70395;51.382;7.074;2024-03-17T06:25:47;7.00;67.70
80937;DHT22;70395;51.382;7.074;2024-03-17T06:28:15;7.10;67.30
80937;DHT22;70395;51.382;7.074;2024-03-17T06:30:45;7.30;67.20
80937;DHT22;70395;51.382;7.074;2024-03-17T06:33:19;7.50;66.90
80937;DHT22;70395;51.382;7.074;2024-03-17T06:35:46;7.70;66.50
80937;DHT22;70395;51.382;7.074;2024-03-17T06:38:13;7.90;65.90
80937;DHT22;70395;51.382;7.074;2024-03-17T06:40:40;8.00;65.50
80937;DHT22;70395;51.382;7.074;2024-03-17T06:43:07;8.20;65.50
80937;DHT22;70395;51.382;7.074;2024-03-17T06:45:33;8.50;65.30
80937;DHT22;70395;51.382;7.074;2024-03-17T06:48:00;8.80;65.10
80937;DHT22;70395;51.382;7.074;2024-03-17T06:50:25;9.20;64.80
80937;DHT22;70395;51.382;7.074;2024-03-17T06:52:51;9.50;64.20
80937;DHT22;70395;51.382;7.074;2024-03-17T06:55:18;9.90;63.10
80937;DHT22;70395;51.382;7.074;2024-03-17T06:57:46;10.30;61.40
80937;DHT22;70395;51.382;7.074;2024-03-17T07:00:14;10.60;61.30
80937;DHT22;70395;51.382;7.074;2024-03-17T07:02:41;10.70;60.10
80937;DHT22;70395;51.382;7.074;2024-03-17T07:05:14;11.00;59.90
80937;DHT22;70395;51.382;7.074;2024-03-17T07:07:44;11.10;58.80
80937;DHT22;70395;51.382;7.074;2024-03-17T07:10:11;11.40;58.70
80937;DHT22;70395;51.382;7.074;2024-03-17T07:12:41;11.60;58.40
80937;DHT22;70395;51.382;7.074;2024-03-17T07:15:08;11.90;57.40
80937;DHT22;70395;51.382;7.074;2024-03-17T07:17:34;12.20;57.20
80937;DHT22;70395;51.382;7.074;2024-03-17T07:20:00;12.50;55.90
80937;DHT22;70395;51.382;7.074;2024-03-17T07:22:27;12.80;56.20
80937;DHT22;70395;51.382;7.074;2024-03-17T07:24:53;13.10;54.90
80937;DHT22;70395;51.382;7.074;2024-03-17T07:27:27;13.30;55.40
80937;DHT22;70395;51.382;7.074;2024-03-17T07:29:53;13.60;54.10
80937;DHT22;70395;51.382;7.074;2024-03-17T07:32:19;13.90;53.80
80937;DHT22;70395;51.382;7.074;2024-03-17T07:34:45;14.20;53.20
80937;DHT22;70395;51.382;7.074;2024-03-17T07:37:11;14.40;52.40
80937;DHT22;70395;51.382;7.074;2024-03-17T07:39:36;14.50;51.90
80937;DHT22;70395;51.382;7.074;2024-03-17T07:42:02;14.60;52.00
80937;DHT22;70395;51.382;7.074;2024-03-17T07:44:28;14.80;51.60
80937;DHT22;70395;51.382;7.074;2024-03-17T07:46:59;14.90;51.70
80937;DHT22;70395;51.382;7.074;2024-03-17T07:49:26;14.90;51.40
80937;DHT22;70395;51.382;7.074;2024-03-17T07:51:51;14.90;50.20
80937;DHT22;70395;51.382;7.074;2024-03-17T07:54:17;14.90;50.10
80937;DHT22;70395;51.382;7.074;2024-03-17T07:56:45;14.80;50.90
80937;DHT22;70395;51.382;7.074;2024-03-17T07:59:12;14.80;50.50
80937;DHT22;70395;51.382;7.074;2024-03-17T08:01:42;14.90;51.00
80937;DHT22;70395;51.382;7.074;2024-03-17T08:04:08;15.20;51.90
80937;DHT22;70395;51.382;7.074;2024-03-17T08:06:33;15.60;51.90
80937;DHT22;70395;51.382;7.074;2024-03-17T08:08:59;16.10;51.20
80937;DHT22;70395;51.382;7.074;2024-03-17T08:11:25;16.60;49.20
80937;DHT22;70395;51.382;7.074;2024-03-17T08:13:51;17.10;49.80
80937;DHT22;70395;51.382;7.074;2024-03-17T08:16:18;17.50;48.10
80937;DHT22;70395;51.382;7.074;2024-03-17T08:18:44;17.80;47.40
80937;DHT22;70395;51.382;7.074;2024-03-17T08:21:09;18.00;47.00
80937;DHT22;70395;51.382;7.074;2024-03-17T08:23:36;18.10;46.30
80937;DHT22;70395;51.382;7.074;2024-03-17T08:26:07;18.20;46.50
80937;DHT22;70395;51.382;7.074;2024-03-17T08:28:34;18.30;46.70
80937;DHT22;70395;51.382;7.074;2024-03-17T08:31:01;18.60;46.70
80937;DHT22;70395;51.382;7.074;2024-03-17T08:33:28;18.90;45.20
80937;DHT22;70395;51.382;7.074;2024-03-17T08:38:30;19.70;43.50
80937;DHT22;70395;51.382;7.074;2024-03-17T08:40:58;20.10;43.40
80937;DHT22;70395;51.382;7.074;2024-03-17T08:43:32;20.40;41.20
80937;DHT22;70395;51.382;7.074;2024-03-17T08:48:26;20.80;42.10
80937;DHT22;70395;51.382;7.074;2024-03-17T08:50:54;20.90;40.90
80937;DHT22;70395;51.382;7.074;2024-03-17T08:53:21;21.00;40.20
80937;DHT22;70395;51.382;7.074;2024-03-17T08:55:49;21.10;40.70
80937;DHT22;70395;51.382;7.074;2024-03-17T08:58:15;21.00;39.80
80937;DHT22;70395;51.382;7.074;2024-03-17T09:00:41;21.00;39.80
80937;DHT22;70395;51.382;7.074;2024-03-17T09:03:08;20.90;40.50
80937;DHT22;70395;51.382;7.074;2024-03-17T09:05:39;20.80;40.50
80937;DHT22;70395;51.382;7.074;2024-03-17T09:08:06;20.70;39.50
80937;DHT22;70395;51.382;7.074;2024-03-17T09:10:39;20.60;40.70
80937;DHT22;70395;51.382;7.074;2024-03-17T09:13:06;20.40;40.30
80937;DHT22;70395;51.382;7.074;2024-03-17T09:15:32;20.30;41.00
80937;DHT22;70395;51.382;7.074;2024-03-17T09:17:58;20.30;40.90
80937;DHT22;70395;51.382;7.074;2024-03-17T09:20:24;20.20;41.00
80937;DHT22;70395;51.382;7.074;2024-03-17T09:22:50;20.10;41.00
80937;DHT22;70395;51.382;7.074;2024-03-17T09:25:15;19.90;40.80
80937;DHT22;70395;51.382;7.074;2024-03-17T09:27:42;19.70;41.00
80937;DHT22;70395;51.382;7.074;2024-03-17T09:30:08;19.50;41.00
80937;DHT22;70395;51.382;7.074;2024-03-17T09:32:38;19.20;40.60
80937;DHT22;70395;51.382;7.074;2024-03-17T09:35:05;18.90;41.00
80937;DHT22;70395;51.382;7.074;2024-03-17T09:37:31;18.60;41.10
80937;DHT22;70395;51.382;7.074;2024-03-17T09:40:00;18.30;41.50
80937;DHT22;70395;51.382;7.074;2024-03-17T09:42:27;18.00;41.90
80937;DHT22;70395;51.382;7.074;2024-03-17T09:44:53;17.80;42.70
80937;DHT22;70395;51.382;7.074;2024-03-17T09:47:23;17.50;42.20
80937;DHT22;70395;51.382;7.074;2024-03-17T09:49:51;17.30;42.70
80937;DHT22;70395;51.382;7.074;2024-03-17T09:52:22;17.10;43.10
80937;DHT22;70395;51.382;7.074;2024-03-17T09:55:15;16.90;43.40
80937;DHT22;70395;51.382;7.074;2024-03-17T09:57:43;16.70;43.50
80937;DHT22;70395;51.382;7.074;2024-03-17T10:00:11;16.70;44.00
80937;DHT22;70395;51.382;7.074;2024-03-17T10:02:46;16.60;44.10
80937;DHT22;70395;51.382;7.074;2024-03-17T10:05:25;16.60;44.60
80937;DHT22;70395;51.382;7.074;2024-03-17T10:07:51;16.70;44.40
80937;DHT22;70395;51.382;7.074;2024-03-17T10:10:18;16.70;44.80
80937;DHT22;70395;51.382;7.074;2024-03-17T10:12:50;16.70;44.60
80937;DHT22;70395;51.382;7.074;2024-03-17T10:15:17;16.70;44.50
80937;DHT22;70395;51.382;7.074;2024-03-17T10:17:44;16.70;44.80
80937;DHT22;70395;51.382;7.074;2024-03-17T10:20:14;16.60;44.40
80937;DHT22;70395;51.382;7.074;2024-03-17T10:23:05;16.60;44.90
80937;DHT22;70395;51.382;7.074;2024-03-17T10:25:37;16.60;44.70
80937;DHT22;70395;51.382;7.074;2024-03-17T10:28:11;16.60;44.80
80937;DHT22;70395;51.382;7.074;2024-03-17T10:30:38;16.60;44.30
80937;DHT22;70395;51.382;7.074;2024-03-17T10:33:06;16.60;44.70
80937;DHT22;70395;51.382;7.074;2024-03-17T10:35:38;16.70;44.90
80937;DHT22;70395;51.382;7.074;2024-03-17T10:38:05;16.70;44.80
80937;DHT22;70395;51.382;7.074;2024-03-17T10:40:33;16.70;45.00
80937;DHT22;70395;51.382;7.074;2024-03-17T10:43:02;16.80;44.90
80937;DHT22;70395;51.382;7.074;2024-03-17T10:45:28;16.90;44.40
80937;DHT22;70395;51.382;7.074;2024-03-17T10:48:01;16.90;44.40
80937;DHT22;70395;51.382;7.074;2024-03-17T10:50:31;17.00;44.50
80937;DHT22;70395;51.382;7.074;2024-03-17T10:53:02;17.10;44.60
80937;DHT22;70395;51.382;7.074;2024-03-17T10:55:44;17.10;44.40
80937;DHT22;70395;51.382;7.074;2024-03-17T10:58:39;17.10;44.30
80937;DHT22;70395;51.382;7.074;2024-03-17T11:01:14;17.20;44.70
80937;DHT22;70395;51.382;7.074;2024-03-17T11:03:41;17.40;44.70
80937;DHT22;70395;51.382;7.074;2024-03-17T11:06:09;17.50;44.50
80937;DHT22;70395;51.382;7.074;2024-03-17T11:08:36;17.60;44.40
80937;DHT22;70395;51.382;7.074;2024-03-17T11:11:03;17.60;44.40
80937;DHT22;70395;51.382;7.074;2024-03-17T11:13:31;17.70;44.00
80937;DHT22;70395;51.382;7.074;2024-03-17T11:15:58;17.80;44.40
80937;DHT22;70395;51.382;7.074;2024-03-17T11:24:01;18.00;42.90
80937;DHT22;70395;51.382;7.074;2024-03-17T11:26:32;17.90;43.50
80937;DHT22;70395;51.382;7.074;2024-03-17T11:28:59;17.90;43.30
80937;DHT22;70395;51.382;7.074;2024-03-17T11:31:34;17.80;43.60
80937;DHT22;70395;51.382;7.074;2024-03-17T11:34:03;17.70;43.90
80937;DHT22;70395;51.382;7.074;2024-03-17T11:36:34;17.60;44.30
80937;DHT22;70395;51.382;7.074;2024-03-17T11:39:09;17.50;44.20
80937;DHT22;70395;51.382;7.074;2024-03-17T11:41:55;17.50;44.10
80937;DHT22;70395;51.382;7.074;2024-03-17T11:44:36;17.40;43.90
80937;DHT22;70395;51.382;7.074;2024-03-17T11:47:06;17.40;43.90
80937;DHT22;70395;51.382;7.074;2024-03-17T11:49:37;17.30;44.10
80937;DHT22;70395;51.382;7.074;2024-03-17T11:52:16;17.30;44.30
80937;DHT22;70395;51.382;7.074;2024-03-17T11:54:46;17.20;43.90
80937;DHT22;70395;51.382;7.074;2024-03-17T11:57:21;17.20;44.30
80937;DHT22;70395;51.382;7.074;2024-03-17T11:59:49;17.20;44.50
80937;DHT22;70395;51.382;7.074;2024-03-17T12:02:26;17.30;44.70
80937;DHT22;70395;51.382;7.074;2024-03-17T12:04:56;17.30;44.50
80937;DHT22;70395;51.382;7.074;2024-03-17T12:07:23;17.40;44.70
80937;DHT22;70395;51.382;7.074;2024-03-17T12:09:51;17.40;44.70
80937;DHT22;70395;51.382;7.074;2024-03-17T12:12:21;17.50;44.50
80937;DHT22;70395;51.382;7.074;2024-03-17T12:14:50;17.50;44.20
80937;DHT22;70395;51.382;7.074;2024-03-17T12:17:25;17.60;44.00
80937;DHT22;70395;51.382;7.074;2024-03-17T12:19:51;17.60;43.70
80937;DHT22;70395;51.382;7.074;2024-03-17T12:22:19;17.60;43.70
80937;DHT22;70395;51.382;7.074;2024-03-17T12:24:53;17.70;43.90
80937;DHT22;70395;51.382;7.074;2024-03-17T12:27:22;17.80;43.70
80937;DHT22;70395;51.382;7.074;2024-03-17T12:29:51;17.90;43.80
80937;DHT22;70395;51.382;7.074;2024-03-17T12:32:22;17.90;43.00
80937;DHT22;70395;51.382;7.074;2024-03-17T12:34:53;18.00;42.80
80937;DHT22;70395;51.382;7.074;2024-03-17T12:39:48;18.20;41.90
80937;DHT22;70395;51.382;7.074;2024-03-17T12:42:15;18.40;43.00
80937;DHT22;70395;51.382;7.074;2024-03-17T12:44:53;18.50;42.90
80937;DHT22;70395;51.382;7.074;2024-03-17T12:47:21;18.60;42.20
80937;DHT22;70395;51.382;7.074;2024-03-17T12:49:52;18.80;42.10
80937;DHT22;70395;51.382;7.074;2024-03-17T12:52:22;18.90;42.00
80937;DHT22;70395;51.382;7.074;2024-03-17T12:55:01;19.00;42.30
80937;DHT22;70395;51.382;7.074;2024-03-17T12:57:51;19.10;41.50
80937;DHT22;70395;51.382;7.074;2024-03-17T13:03:28;19.70;42.10
80937;DHT22;70395;51.382;7.074;2024-03-17T13:06:00;19.90;41.70
80937;DHT22;70395;51.382;7.074;2024-03-17T13:08:31;20.10;41.30
80937;DHT22;70395;51.382;7.074;2024-03-17T13:11:00;20.20;41.30
80937;DHT22;70395;51.382;7.074;2024-03-17T13:13:29;20.30;41.00
80937;DHT22;70395;51.382;7.074;2024-03-17T13:15:55;20.40;41.00
80937;DHT22;70395;51.382;7.074;2024-03-17T13:18:21;20.50;40.20
80937;DHT22;70395;51.382;7.074;2024-03-17T13:20:48;20.60;39.90
80937;DHT22;70395;51.382;7.074;2024-03-17T13:23:20;20.70;40.40
80937;DHT22;70395;51.382;7.074;2024-03-17T13:25:50;20.90;40.50
80937;DHT22;70395;51.382;7.074;2024-03-17T13:28:16;21.00;39.80
80937;DHT22;70395;51.382;7.074;2024-03-17T13:30:42;21.20;39.30
80937;DHT22;70395;51.382;7.074;2024-03-17T13:33:10;21.30;38.80
80937;DHT22;70395;51.382;7.074;2024-03-17T13:35:39;21.30;39.10
80937;DHT22;70395;51.382;7.074;2024-03-17T13:38:06;21.20;38.60
80937;DHT22;70395;51.382;7.074;2024-03-17T13:40:37;21.10;38.60
80937;DHT22;70395;51.382;7.074;2024-03-17T13:43:05;20.90;38.20
80937;DHT22;70395;51.382;7.074;2024-03-17T13:45:41;20.70;38.40
80937;DHT22;70395;51.382;7.074;2024-03-17T13:48:13;20.50;38.00
80937;DHT22;70395;51.382;7.074;2024-03-17T13:50:40;20.40;38.30
80937;DHT22;70395;51.382;7.074;2024-03-17T13:53:09;20.20;38.10
80937;DHT22;70395;51.382;7.074;2024-03-17T13:55:37;20.00;38.90
80937;DHT22;70395;51.382;7.074;2024-03-17T13:58:04;19.90;38.70
80937;DHT22;70395;51.382;7.074;2024-03-17T14:00:30;19.80;38.70
80937;DHT22;70395;51.382;7.074;2024-03-17T14:02:59;19.70;39.10
80937;DHT22;70395;51.382;7.074;2024-03-17T14:05:26;19.50;39.30
80937;DHT22;70395;51.382;7.074;2024-03-17T14:07:53;19.40;39.10
80937;DHT22;70395;51.382;7.074;2024-03-17T14:10:22;19.30;39.40
80937;DHT22;70395;51.382;7.074;2024-03-17T14:12:49;19.20;39.70
80937;DHT22;70395;51.382;7.074;2024-03-17T14:15:16;19.10;40.50
80937;DHT22;70395;51.382;7.074;2024-03-17T14:17:44;19.10;40.40
80937;DHT22;70395;51.382;7.074;2024-03-17T14:20:11;19.00;40.30
80937;DHT22;70395;51.382;7.074;2024-03-17T14:22:43;18.90;40.40
80937;DHT22;70395;51.382;7.074;2024-03-17T14:25:12;18.80;40.10
80937;DHT22;70395;51.382;7.074;2024-03-17T14:27:41;18.70;40.10
80937;DHT22;70395;51.382;7.074;2024-03-17T14:30:08;18.60;40.30
80937;DHT22;70395;51.382;7.074;2024-03-17T14:32:35;18.50;40.60
80937;DHT22;70395;51.382;7.074;2024-03-17T14:35:01;18.40;40.50
80937;DHT22;70395;51.382;7.074;2024-03-17T14:37:27;18.30;40.70
80937;DHT22;70395;51.382;7.074;2024-03-17T14:39:53;18.30;40.90
80937;DHT22;70395;51.382;7.074;2024-03-17T14:42:20;18.20;41.10
80937;DHT22;70395;51.382;7.074;2024-03-17T14:44:46;18.20;41.50
80937;DHT22;70395;51.382;7.074;2024-03-17T14:47:15;18.10;41.50
80937;DHT22;70395;51.382;7.074;2024-03-17T14:49:41;18.10;41.90
80937;DHT22;70395;51.382;7.074;2024-03-17T14:52:07;18.10;42.40
80937;DHT22;70395;51.382;7.074;2024-03-17T14:54:35;18.10;42.50
80937;DHT22;70395;51.382;7.074;2024-03-17T14:57:00;18.00;42.20
80937;DHT22;70395;51.382;7.074;2024-03-17T14:59:26;18.10;42.30
80937;DHT22;70395;51.382;7.074;2024-03-17T15:01:52;18.10;42.50
80937;DHT22;70395;51.382;7.074;2024-03-17T15:04:18;18.10;42.50
80937;DHT22;70395;51.382;7.074;2024-03-17T15:06:44;18.10;42.40
80937;DHT22;70395;51.382;7.074;2024-03-17T15:09:10;18.00;42.40
80937;DHT22;70395;51.382;7.074;2024-03-17T15:11:45;18.10;42.30
80937;DHT22;70395;51.382;7.074;2024-03-17T15:14:14;18.10;42.30
80937;DHT22;70395;51.382;7.074;2024-03-17T15:16:40;18.00;42.50
80937;DHT22;70395;51.382;7.074;2024-03-17T15:19:06;18.00;42.30
80937;DHT22;70395;51.382;7.074;2024-03-17T15:21:32;18.00;42.40
80937;DHT22;70395;51.382;7.074;2024-03-17T15:23:58;18.00;41.30
80937;DHT22;70395;51.382;7.074;2024-03-17T15:26:24;18.00;41.30
80937;DHT22;70395;51.382;7.074;2024-03-17T15:28:50;18.00;41.20
80937;DHT22;70395;51.382;7.074;2024-03-17T15:31:16;18.00;41.30
80937;DHT22;70395;51.382;7.074;2024-03-17T15:33:43;18.00;41.50
80937;DHT22;70395;51.382;7.074;2024-03-17T15:36:10;18.00;41.30
80937;DHT22;70395;51.382;7.074;2024-03-17T15:38:37;18.00;41.60
80937;DHT22;70395;51.382;7.074;2024-03-17T15:41:07;18.00;41.60
80937;DHT22;70395;51.382;7.074;2024-03-17T15:43:36;18.00;41.60
80937;DHT22;70395;51.382;7.074;2024-03-17T15:46:16;18.00;41.80
80937;DHT22;70395;51.382;7.074;2024-03-17T15:48:44;18.00;42.10
80937;DHT22;70395;51.382;7.074;2024-03-17T15:51:11;18.00;42.30
80937;DHT22;70395;51.382;7.074;2024-03-17T15:53:37;18.00;42.30
80937;DHT22;70395;51.382;7.074;2024-03-17T15:56:04;18.00;42.40
80937;DHT22;70395;51.382;7.074;2024-03-17T15:58:32;18.00;42.10
80937;DHT22;70395;51.382;7.074;2024-03-17T16:00:58;17.90;42.20